Time;durP1;ratioP1;P1;durP2;ratioP2;P2;SDS_P1;SDS_P2;PMS_P1;PMS_P2;Temp;Humidity;BMP_temperature;BMP_pressure;BME280_temperature;BME280_humidity;BME280_pressure;Samples;Min_cycle;Max_cycle;Signal;HPM_P1;HPM_P2
2021/05/03 00:01:57;;;;;;;44.20;24.25;;;;;;;4.63;88.96;100372.45;1672936;85;21245;-73
2021/05/03 00:04:26;;;;;;;38.02;22.82;;;;;;;4.66;88.98;100372.19;1672837;85;21197;-73
2021/05/03 00:06:52;;;;;;;41.02;24.02;;;;;;;4.67;88.97;100369.91;1672741;85;21254;-72
2021/05/03 00:09:19;;;;;;;36.58;22.00;;;;;;;4.67;89.00;100378.67;1672682;84;21722;-73
2021/05/03 00:11:46;;;;;;;43.73;26.30;;;;;;;4.69;89.02;100385.13;1672483;85;21716;-73
2021/05/03 00:14:12;;;;;;;39.27;25.12;;;;;;;4.72;89.02;100384.86;1672735;85;21197;-73
2021/05/03 00:16:38;;;;;;;54.98;28.00;;;;;;;4.72;89.02;100394.09;1672993;85;21157;-73
2021/05/03 00:19:05;;;;;;;81.53;31.75;;;;;;;4.70;89.02;100385.48;1672860;85;21187;-73
2021/05/03 00:21:31;;;;;;;50.17;21.17;;;;;;;4.72;89.02;100391.45;1672088;84;21220;-73
2021/05/03 00:23:57;;;;;;;35.00;17.85;;;;;;;4.73;89.03;100385.22;1672828;84;21668;-73
2021/05/03 00:26:24;;;;;;;30.43;18.23;;;;;;;4.75;89.03;100379.34;1672532;85;21618;-73
2021/05/03 00:28:50;;;;;;;35.05;19.20;;;;;;;4.77;89.02;100391.91;1672710;85;21867;-73
2021/05/03 00:31:16;;;;;;;44.42;21.75;;;;;;;4.75;89.03;100389.39;1672739;85;21203;-73
2021/05/03 00:33:43;;;;;;;35.15;18.92;;;;;;;4.78;89.07;100393.59;1672869;85;21149;-73
2021/05/03 00:36:09;;;;;;;47.40;22.93;;;;;;;4.79;89.07;100392.13;1672883;84;21174;-73
2021/05/03 00:38:36;;;;;;;35.35;18.57;;;;;;;4.80;89.09;100394.28;1672818;85;21165;-73
2021/05/03 00:41:03;;;;;;;50.43;23.52;;;;;;;4.82;89.13;100395.00;1672758;84;21210;-73
2021/05/03 00:43:29;;;;;;;40.38;18.98;;;;;;;4.81;89.12;100399.92;1672801;85;21211;-73
2021/05/03 00:45:55;;;;;;;33.08;14.98;;;;;;;4.80;89.15;100396.92;1672777;84;21234;-73
2021/05/03 00:48:22;;;;;;;23.87;12.37;;;;;;;4.78;89.15;100400.20;1683581;83;21163;-72
2021/05/03 00:50:49;;;;;;;19.52;11.45;;;;;;;4.77;89.17;100397.20;1710493;82;21175;-73
2021/05/03 00:53:15;;;;;;;21.82;11.45;;;;;;;4.75;89.19;100395.19;1710491;83;21167;-73
2021/05/03 00:55:42;;;;;;;16.25;9.28;;;;;;;4.74;89.21;100393.02;1710128;82;21163;-73
2021/05/03 00:58:09;;;;;;;22.05;10.98;;;;;;;4.72;89.23;100396.27;1710454;83;21160;-73
2021/05/03 01:00:35;;;;;;;23.83;11.20;;;;;;;4.72;89.26;100395.42;1710326;83;21135;-73
2021/05/03 01:03:02;;;;;;;31.33;14.65;;;;;;;4.69;89.28;100397.01;1710376;83;21210;-73
2021/05/03 01:05:29;;;;;;;25.00;11.35;;;;;;;4.69;89.29;100394.37;1710401;83;21152;-73
2021/05/03 01:07:56;;;;;;;18.57;10.03;;;;;;;4.65;89.31;100398.23;1710527;83;21139;-73
2021/05/03 01:10:24;;;;;;;26.17;11.60;;;;;;;4.66;89.35;100402.56;1710239;82;21189;-72
2021/05/03 01:12:52;;;;;;;28.38;13.38;;;;;;;4.65;89.38;100399.08;1710288;83;21635;-72
2021/05/03 01:15:23;;;;;;;30.27;12.88;;;;;;;4.65;89.38;100407.00;1710578;83;21155;-73
2021/05/03 01:17:47;;;;;;;19.07;8.13;;;;;;;4.64;89.41;100399.23;1709572;83;21612;-73
2021/05/03 01:20:15;;;;;;;14.35;7.28;;;;;;;4.64;89.41;100401.88;1639220;83;22124;-73
2021/05/03 01:22:41;;;;;;;13.15;7.50;;;;;;;4.62;89.43;100401.98;1710327;83;21182;-73
2021/05/03 01:25:09;;;;;;;10.28;6.17;;;;;;;4.63;89.45;100397.07;1710247;83;21191;-72
2021/05/03 01:27:35;;;;;;;8.03;5.40;;;;;;;4.63;89.46;100402.35;1710259;83;21143;-72
2021/05/03 01:30:06;;;;;;;9.00;5.25;;;;;;;4.61;89.45;100400.31;1710518;83;21470;-73
2021/05/03 01:32:33;;;;;;;8.73;6.37;;;;;;;4.62;89.47;100406.43;1710435;83;21212;-72
2021/05/03 01:34:59;;;;;;;7.42;5.87;;;;;;;4.61;89.46;100408.74;1710254;82;21155;-73
2021/05/03 01:37:25;;;;;;;9.35;5.85;;;;;;;4.59;89.50;100402.73;1710362;83;21624;-73
2021/05/03 01:39:52;;;;;;;8.75;5.70;;;;;;;4.60;89.50;100413.66;1710120;83;21155;-72
2021/05/03 01:42:18;;;;;;;10.32;6.55;;;;;;;4.60;89.52;100409.70;1710405;83;21174;-72
2021/05/03 01:44:45;;;;;;;6.80;5.10;;;;;;;4.61;89.52;100411.38;1710299;83;21588;-73
2021/05/03 01:47:11;;;;;;;8.70;5.30;;;;;;;4.61;89.53;100410.88;1710197;82;21159;-73
2021/05/03 01:49:39;;;;;;;7.62;4.47;;;;;;;4.60;89.55;100416.30;1712732;82;21620;-72
2021/05/03 01:52:05;;;;;;;8.68;4.95;;;;;;;4.61;89.58;100414.02;1714404;83;21171;-72
2021/05/03 01:54:32;;;;;;;9.00;6.45;;;;;;;4.61;89.56;100417.98;1714411;83;21187;-72
2021/05/03 01:56:58;;;;;;;7.00;5.17;;;;;;;4.60;89.59;100418.95;1714304;83;21189;-72
2021/05/03 01:59:32;;;;;;;8.13;5.90;;;;;;;4.61;89.59;100420.63;1714417;83;21186;-73
2021/05/03 02:01:53;;;;;;;8.68;5.78;;;;;;;4.63;89.62;100423.96;1713015;83;21171;-72
2021/05/03 02:04:19;;;;;;;7.40;4.72;;;;;;;4.63;89.62;100426.60;1713939;83;21135;-72
2021/05/03 02:06:45;;;;;;;7.72;5.50;;;;;;;4.61;89.63;100423.27;1713918;83;21563;-72
2021/05/03 02:09:12;;;;;;;7.75;5.53;;;;;;;4.61;89.64;100424.08;1713637;83;21190;-72
2021/05/03 02:11:39;;;;;;;6.95;5.17;;;;;;;4.62;89.64;100423.59;1713842;83;21135;-72
2021/05/03 02:14:06;;;;;;;8.93;5.78;;;;;;;4.63;89.66;100425.28;1713827;83;21167;-73
2021/05/03 02:16:32;;;;;;;8.88;6.28;;;;;;;4.62;89.66;100430.20;1713977;83;21163;-73
2021/05/03 02:18:58;;;;;;;9.10;5.75;;;;;;;4.62;89.67;100427.56;1713785;83;21135;-72
2021/05/03 02:21:25;;;;;;;12.85;7.08;;;;;;;4.63;89.69;100428.77;1713891;82;21920;-73
2021/05/03 02:23:51;;;;;;;8.98;5.87;;;;;;;4.63;89.71;100431.88;1713863;83;21163;-73
2021/05/03 02:26:18;;;;;;;7.70;6.55;;;;;;;4.64;89.71;100429.61;1713960;83;21143;-73
2021/05/03 02:28:44;;;;;;;7.58;6.22;;;;;;;4.65;89.72;100427.29;1714158;83;21131;-73
2021/05/03 02:31:10;;;;;;;9.33;6.72;;;;;;;4.64;89.74;100423.00;1713957;83;21148;-73
2021/05/03 02:33:36;;;;;;;6.50;5.55;;;;;;;4.65;89.74;100425.97;1713927;83;21215;-73
2021/05/03 02:36:04;;;;;;;9.95;5.20;;;;;;;4.65;89.76;100429.93;1713735;83;21155;-73
2021/05/03 02:38:31;;;;;;;10.50;7.85;;;;;;;4.65;89.76;100429.93;1714205;83;21576;-73
2021/05/03 02:40:57;;;;;;;10.18;7.85;;;;;;;4.65;89.78;100436.53;1713906;83;21162;-73
2021/05/03 02:43:24;;;;;;;10.80;8.93;;;;;;;4.64;89.81;100439.69;1714130;83;21167;-73
2021/05/03 02:45:51;;;;;;;9.53;8.53;;;;;;;4.63;89.80;100443.29;1714182;83;21202;-73
2021/05/03 02:48:17;;;;;;;18.40;13.98;;;;;;;4.61;89.81;100441.75;1713814;83;21186;-73
2021/05/03 02:50:44;;;;;;;14.45;10.93;;;;;;;4.59;89.83;100444.98;1713901;83;21899;-73
2021/05/03 02:53:10;;;;;;;20.55;11.90;;;;;;;4.53;89.86;100455.13;1713643;82;21186;-73
2021/05/03 02:55:38;;;;;;;13.32;9.88;;;;;;;4.46;89.85;100448.69;1714080;83;21553;-73
2021/05/03 02:58:04;;;;;;;21.57;14.43;;;;;;;4.43;89.89;100451.56;1713997;83;21304;-73
2021/05/03 03:00:32;;;;;;;26.62;16.90;;;;;;;4.44;89.92;100451.08;1713987;83;21162;-73
2021/05/03 03:02:59;;;;;;;24.90;14.70;;;;;;;4.44;89.97;100458.53;1714147;83;21151;-73
2021/05/03 03:05:25;;;;;;;23.20;14.38;;;;;;;4.43;89.98;100468.72;1714073;82;21150;-73
2021/05/03 03:07:52;;;;;;;31.87;14.98;;;;;;;4.39;89.98;100472.61;1713945;83;21171;-73
2021/05/03 03:10:19;;;;;;;41.37;17.30;;;;;;;4.36;90.01;100478.13;1713755;82;21565;-73
2021/05/03 03:12:46;;;;;;;32.95;15.20;;;;;;;4.32;90.02;100474.58;1713929;83;21171;-73
2021/05/03 03:15:15;;;;;;;25.65;15.48;;;;;;;4.28;90.01;100470.03;1713983;83;21171;-73
2021/05/03 03:17:48;;;;;;;30.80;17.98;;;;;;;4.30;90.04;100476.48;1714116;82;21154;-73
2021/05/03 03:20:14;;;;;;;22.05;12.58;;;;;;;4.31;90.06;100476.38;1714079;82;21168;-73
2021/05/03 03:22:40;;;;;;;24.80;13.85;;;;;;;4.30;90.05;100477.33;1713877;83;21319;-73
2021/05/03 03:25:07;;;;;;;24.75;14.30;;;;;;;4.29;90.07;100476.96;1713878;83;21730;-73
2021/05/03 03:27:33;;;;;;;25.17;16.93;;;;;;;4.30;90.08;100478.64;1713920;83;21167;-73
2021/05/03 03:30:00;;;;;;;41.02;28.47;;;;;;;4.31;90.09;100490.89;1713867;83;21211;-73
2021/05/03 03:32:28;;;;;;;34.60;26.50;;;;;;;4.31;90.11;100486.93;1713948;83;21579;-73
2021/05/03 03:34:55;;;;;;;29.77;18.95;;;;;;;4.33;90.11;100496.86;1714026;82;22114;-73
2021/05/03 03:37:21;;;;;;;32.93;19.77;;;;;;;4.32;90.10;100487.30;1713956;83;21191;-73
2021/05/03 03:39:47;;;;;;;36.65;26.10;;;;;;;4.29;90.11;100492.80;1713836;83;21194;-73
2021/05/03 03:42:14;;;;;;;47.75;31.65;;;;;;;4.32;90.11;100500.49;1713949;83;21587;-73
2021/05/03 03:44:40;;;;;;;35.63;21.97;;;;;;;4.35;90.10;100498.91;1713812;83;21615;-73
2021/05/03 03:47:06;;;;;;;20.30;13.28;;;;;;;4.32;90.11;100497.85;1714014;83;21576;-73
2021/05/03 03:49:33;;;;;;;13.13;10.18;;;;;;;4.31;90.11;100506.73;1712417;83;21637;-73
2021/05/03 03:51:59;;;;;;;15.58;9.38;;;;;;;4.31;90.10;100508.05;1710458;83;21596;-73
2021/05/03 03:54:25;;;;;;;10.23;7.03;;;;;;;4.33;90.10;100507.42;1710342;83;21127;-73
2021/05/03 03:56:51;;;;;;;6.75;5.70;;;;;;;4.34;90.10;100513.06;1710452;82;21171;-73
2021/05/03 03:59:18;;;;;;;7.62;4.90;;;;;;;4.37;90.09;100515.45;1710502;83;21604;-73
2021/05/03 04:01:45;;;;;;;6.30;4.17;;;;;;;4.37;90.08;100518.09;1710344;83;21616;-73
2021/05/03 04:04:19;;;;;;;13.85;9.65;;;;;;;4.36;90.08;100524.83;1710346;83;21211;-73
2021/05/03 04:06:44;;;;;;;12.73;9.05;;;;;;;4.32;90.06;100529.53;1709025;82;21615;-73
2021/05/03 04:09:11;;;;;;;12.82;10.75;;;;;;;4.26;90.08;100537.94;1709727;82;21190;-73
2021/05/03 04:21:04;;;;;;;42.70;19.40;;;;;;;4.20;90.13;100541.08;1710157;82;21174;-73
2021/05/03 04:25:16;;;;;;;29.23;21.37;;;;;;;4.21;90.19;100554.64;1824332;78;22205;-73
2021/05/03 04:27:39;;;;;;;21.77;16.00;;;;;;;4.23;90.22;100557.14;1823667;78;21147;-73
2021/05/03 04:30:09;;;;;;;21.07;17.42;;;;;;;4.21;90.20;100565.20;1824325;78;21135;-73
2021/05/03 04:32:36;;;;;;;25.90;16.52;;;;;;;4.19;90.21;100574.19;1823791;78;21124;-73
2021/05/03 04:35:02;;;;;;;9.73;7.62;;;;;;;4.17;90.20;100570.84;1824339;78;21139;-73
2021/05/03 04:37:29;;;;;;;6.83;5.47;;;;;;;4.14;90.21;100575.91;1824223;78;22212;-73
2021/05/03 04:39:55;;;;;;;8.23;7.17;;;;;;;4.07;90.22;100572.08;1824056;78;21029;-73
2021/05/03 04:42:22;;;;;;;12.35;9.78;;;;;;;4.03;90.22;100574.61;1823869;78;21123;-72
2021/05/03 04:44:48;;;;;;;10.13;8.03;;;;;;;4.00;90.21;100584.09;1824233;78;21116;-73
2021/05/03 04:47:14;;;;;;;10.90;6.22;;;;;;;3.98;90.22;100591.28;1824283;78;21115;-72
2021/05/03 04:49:41;;;;;;;10.38;7.55;;;;;;;3.96;90.24;100583.98;1824015;78;21159;-73
2021/05/03 04:52:08;;;;;;;14.18;10.32;;;;;;;3.96;90.23;100594.05;1823542;78;21160;-73
2021/05/03 04:54:34;;;;;;;16.00;12.68;;;;;;;3.98;90.23;100600.51;1754984;81;21120;-72
2021/05/03 04:57:01;;;;;;;14.87;10.63;;;;;;;4.00;90.26;100598.61;1786243;80;21545;-72
2021/05/03 04:59:27;;;;;;;10.40;8.15;;;;;;;3.99;90.28;100600.88;1755015;81;21590;-73
2021/05/03 05:01:53;;;;;;;11.20;8.85;;;;;;;3.97;90.27;100601.02;1786245;80;21309;-73
2021/05/03 05:04:20;;;;;;;11.30;9.28;;;;;;;3.98;90.27;100603.15;1755024;81;21195;-72
2021/05/03 05:06:46;;;;;;;12.05;9.10;;;;;;;3.98;90.28;100613.70;1785984;80;21581;-73
2021/05/03 05:09:12;;;;;;;11.00;8.63;;;;;;;3.99;90.27;100614.07;1755043;81;21204;-73
2021/05/03 05:11:39;;;;;;;13.68;7.85;;;;;;;4.02;90.29;100605.91;1786029;80;21116;-73
2021/05/03 05:14:05;;;;;;;24.80;11.35;;;;;;;4.00;90.28;100607.84;1755094;81;21203;-73
2021/05/03 05:16:32;;;;;;;10.05;6.75;;;;;;;4.01;90.27;100614.80;1785934;80;21176;-73
2021/05/03 05:18:58;;;;;;;7.35;5.30;;;;;;;3.99;90.27;100620.67;1758468;81;21167;-72
2021/05/03 05:21:24;;;;;;;8.93;7.40;;;;;;;3.98;90.27;100622.94;1792060;80;21171;-73
2021/05/03 05:23:50;;;;;;;9.50;8.08;;;;;;;3.97;90.28;100625.23;1760472;81;21203;-73
2021/05/03 05:26:17;;;;;;;11.63;9.75;;;;;;;3.96;90.28;100630.15;1792031;80;21148;-72
2021/05/03 05:28:43;;;;;;;16.50;12.00;;;;;;;3.97;90.31;100629.20;1752501;81;21480;-73
2021/05/03 05:31:10;;;;;;;13.45;9.83;;;;;;;3.99;90.30;100629.42;1766389;80;21119;-72
2021/05/03 05:33:36;;;;;;;10.03;7.67;;;;;;;4.01;90.29;100624.04;1771524;80;21140;-73
2021/05/03 05:36:03;;;;;;;13.83;11.10;;;;;;;3.97;90.32;100627.41;1743920;81;21223;-73
2021/05/03 05:38:30;;;;;;;12.93;10.58;;;;;;;4.00;90.32;100626.31;1728212;83;21234;-73
2021/05/03 05:40:56;;;;;;;15.40;10.28;;;;;;;4.03;90.34;100626.06;1734677;81;21156;-73
2021/05/03 05:43:22;;;;;;;21.52;12.90;;;;;;;4.06;90.33;100626.29;1778113;80;21620;-73
2021/05/03 05:45:49;;;;;;;56.95;28.02;;;;;;;4.08;90.33;100630.98;1731962;81;21592;-73
2021/05/03 05:48:15;;;;;;;32.42;16.82;;;;;;;4.09;90.31;100630.84;1733164;81;21157;-73
2021/05/03 05:50:42;;;;;;;31.62;16.27;;;;;;;4.10;90.31;100635.16;1760008;81;21199;-73
2021/05/03 05:53:08;;;;;;;37.67;16.52;;;;;;;4.15;90.30;100640.08;1729795;83;21163;-73
2021/05/03 05:55:34;;;;;;;26.30;13.53;;;;;;;4.16;90.30;100645.22;1751936;81;21123;-73
2021/05/03 05:58:01;;;;;;;28.47;14.30;;;;;;;4.16;90.29;100641.27;1729575;83;21210;-73
2021/05/03 06:00:27;;;;;;;23.05;11.15;;;;;;;4.17;90.30;100646.91;1728506;81;21176;-73
2021/05/03 06:02:53;;;;;;;23.57;10.43;;;;;;;4.16;90.29;100642.58;1775438;80;22026;-73
2021/05/03 06:05:20;;;;;;;27.17;11.35;;;;;;;4.15;90.29;100644.85;1761944;80;21117;-72
2021/05/03 06:07:47;;;;;;;15.50;9.53;;;;;;;4.14;90.30;100648.48;1747374;81;21199;-73
2021/05/03 06:10:13;;;;;;;7.62;5.15;;;;;;;4.16;90.30;100649.66;1752750;81;21179;-72
2021/05/03 06:12:40;;;;;;;10.28;7.33;;;;;;;4.17;90.31;100651.34;1760009;81;21167;-72
2021/05/03 06:15:07;;;;;;;15.95;7.85;;;;;;;4.19;90.28;100646.77;1791348;80;21195;-73
2021/05/03 06:17:33;;;;;;;21.27;16.35;;;;;;;4.20;90.29;100656.38;1760035;81;21140;-73
2021/05/03 06:20:00;;;;;;;30.27;15.50;;;;;;;4.23;90.32;100658.77;1737760;81;21199;-73
2021/05/03 06:22:28;;;;;;;59.65;32.55;;;;;;;4.24;90.32;100654.69;1755032;80;21120;-72
2021/05/03 06:24:54;;;;;;;82.80;40.48;;;;;;;4.22;90.34;100659.23;1757438;81;21138;-71
2021/05/03 06:27:21;;;;;;;47.17;25.10;;;;;;;4.22;90.37;100665.84;1724422;83;21220;-72
2021/05/03 06:29:47;;;;;;;15.45;9.00;;;;;;;4.17;90.36;100664.06;1754887;80;21176;-71
2021/05/03 06:32:13;;;;;;;9.75;7.33;;;;;;;4.18;90.39;100660.47;1725914;81;21160;-71
2021/05/03 06:34:40;;;;;;;19.75;6.78;;;;;;;4.20;90.40;100667.77;1754118;81;21581;-71
2021/05/03 06:37:07;;;;;;;14.90;7.37;;;;;;;4.22;90.38;100673.75;1754237;81;21144;-71
2021/05/03 06:39:33;;;;;;;7.08;4.85;;;;;;;4.26;90.39;100669.06;1739568;82;21267;-71
2021/05/03 06:42:00;;;;;;;9.75;4.25;;;;;;;4.29;90.39;100673.63;1754090;81;21160;-71
2021/05/03 06:44:27;;;;;;;5.78;3.50;;;;;;;4.31;90.41;100678.31;1739754;82;21157;-71
2021/05/03 06:46:54;;;;;;;10.48;5.35;;;;;;;4.30;90.38;100684.55;1754161;81;21156;-71
2021/05/03 06:49:21;;;;;;;18.62;9.18;;;;;;;4.32;90.41;100686.60;1754268;81;21195;-71
2021/05/03 06:51:47;;;;;;;11.70;7.47;;;;;;;4.37;90.44;100690.17;1738185;81;21272;-71
2021/05/03 06:54:14;;;;;;;14.98;10.18;;;;;;;4.35;90.43;100694.27;1752663;81;21164;-71
2021/05/03 06:56:40;;;;;;;17.85;11.63;;;;;;;4.37;90.47;100694.97;1754328;81;21184;-71
2021/05/03 06:59:07;;;;;;;6.35;5.45;;;;;;;4.39;90.46;100697.03;1749545;81;22042;-71
2021/05/03 07:01:33;;;;;;;16.32;12.90;;;;;;;4.38;90.46;100697.98;1724495;82;21637;-71
2021/05/03 07:03:59;;;;;;;8.63;6.22;;;;;;;4.40;90.48;100706.60;1754301;81;22044;-72
2021/05/03 07:06:25;;;;;;;8.45;6.42;;;;;;;4.42;90.49;100703.38;1757147;81;21138;-72
2021/05/03 07:08:52;;;;;;;12.33;7.83;;;;;;;4.44;90.49;100704.08;1726627;81;21547;-72
2021/05/03 07:11:23;;;;;;;13.40;6.83;;;;;;;4.44;90.50;100707.20;1785511;80;21140;-72
2021/05/03 07:13:49;;;;;;;11.12;6.50;;;;;;;4.48;90.54;100706.84;1725994;81;21213;-72
2021/05/03 07:16:16;;;;;;;27.90;20.88;;;;;;;4.49;90.53;100708.52;1754185;81;22109;-71
2021/05/03 07:18:42;;;;;;;34.48;21.20;;;;;;;4.45;90.53;100711.05;1714069;83;21232;-71
2021/05/03 07:21:08;;;;;;;120.47;68.57;;;;;;;4.43;90.52;100716.92;1735801;82;21680;-71
2021/05/03 07:23:35;;;;;;;195.35;106.78;;;;;;;4.42;90.52;100720.54;1736402;81;21143;-71
2021/05/03 07:26:03;;;;;;;203.02;95.70;;;;;;;4.42;90.53;100724.50;1735992;82;21199;-71
2021/05/03 07:28:29;;;;;;;196.70;92.47;;;;;;;4.43;90.53;100720.88;1709071;82;21221;-72
2021/05/03 07:30:59;;;;;;;300.25;130.55;;;;;;;4.42;90.53;100732.42;1742114;81;21583;-72
2021/05/03 07:33:26;;;;;;;175.20;63.33;;;;;;;4.43;90.53;100730.62;1758772;81;21171;-72
2021/05/03 07:35:53;;;;;;;90.20;35.28;;;;;;;4.43;90.54;100734.08;1736040;82;21501;-72
2021/05/03 07:38:19;;;;;;;255.07;117.97;;;;;;;4.42;90.53;100735.06;1735536;82;21632;-72
2021/05/03 07:40:46;;;;;;;98.22;41.85;;;;;;;4.41;90.51;100729.41;1741801;82;21566;-72
2021/05/03 07:43:12;;;;;;;292.37;112.45;;;;;;;4.40;90.54;100739.61;1747090;80;21159;-72
2021/05/03 07:45:38;;;;;;;56.15;24.10;;;;;;;4.41;90.53;100737.34;1750676;80;21172;-73
2021/05/03 07:48:05;;;;;;;75.35;23.65;;;;;;;4.40;90.51;100746.21;1749347;82;21168;-72
2021/05/03 07:50:31;;;;;;;24.47;13.05;;;;;;;4.42;90.54;100736.38;1749055;82;21155;-72
2021/05/03 07:52:58;;;;;;;54.55;21.87;;;;;;;4.47;90.54;100744.76;1748840;82;21720;-72
2021/05/03 07:55:25;;;;;;;23.18;12.85;;;;;;;4.49;90.55;100746.81;1749130;81;21192;-72
2021/05/03 07:57:52;;;;;;;11.73;8.53;;;;;;;4.52;90.55;100739.12;1749074;82;21129;-72
2021/05/03 08:00:19;;;;;;;20.17;12.07;;;;;;;4.58;90.54;100743.90;1748842;81;21191;-72
2021/05/03 08:02:46;;;;;;;24.30;14.55;;;;;;;4.65;90.52;100748.20;1749210;81;21144;-72
2021/05/03 08:05:12;;;;;;;40.45;14.10;;;;;;;4.78;90.53;100750.23;1749419;81;22050;-72
2021/05/03 08:07:39;;;;;;;24.18;12.75;;;;;;;4.88;90.52;100749.37;1749537;82;21612;-72
2021/05/03 08:10:07;;;;;;;29.48;16.55;;;;;;;4.96;90.52;100750.06;1749585;82;21649;-72
2021/05/03 08:12:34;;;;;;;22.45;14.18;;;;;;;5.08;90.53;100753.48;1749629;82;21155;-73
2021/05/03 08:15:09;;;;;;;17.57;10.85;;;;;;;5.15;90.52;100754.18;1749651;82;21359;-72
2021/05/03 08:17:28;;;;;;;24.52;16.45;;;;;;;5.15;90.51;100759.47;1747946;82;21391;-72
2021/05/03 08:19:55;;;;;;;34.48;21.27;;;;;;;5.15;90.54;100762.11;1748361;81;21193;-72
2021/05/03 08:22:21;;;;;;;42.67;21.93;;;;;;;5.15;90.55;100762.11;1749329;82;21656;-72
2021/05/03 08:24:48;;;;;;;48.95;27.58;;;;;;;5.16;90.55;100766.92;1749542;82;21144;-72
2021/05/03 08:27:14;;;;;;;108.50;52.43;;;;;;;5.16;90.55;100767.77;1749368;82;21152;-72
2021/05/03 08:29:40;;;;;;;90.15;38.17;;;;;;;5.19;90.56;100775.91;1749446;82;21453;-72
2021/05/03 08:32:08;;;;;;;25.95;14.65;;;;;;;5.24;90.57;100776.39;1749390;82;21121;-72
2021/05/03 08:34:34;;;;;;;50.63;23.25;;;;;;;5.28;90.55;100781.27;1749186;82;21136;-73
2021/05/03 08:37:01;;;;;;;148.25;50.40;;;;;;;5.34;90.55;100782.59;1749455;82;21215;-71
2021/05/03 08:39:27;;;;;;;45.40;18.07;;;;;;;5.44;90.55;100780.86;1749268;82;21152;-72
2021/05/03 08:41:59;;;;;;;33.53;14.87;;;;;;;5.50;90.54;100781.18;1749364;82;21191;-74
2021/05/03 08:44:26;;;;;;;21.77;10.58;;;;;;;5.54;90.53;100777.31;1749445;81;21135;-73
2021/05/03 08:46:54;;;;;;;25.02;13.38;;;;;;;5.59;90.53;100783.55;1749483;81;21160;-72
2021/05/03 08:54:41;;;;;;;17.30;10.05;;;;;;;5.80;90.51;100782.23;1756740;81;21167;-70
2021/05/03 08:57:10;;;;;;;14.15;8.28;;;;;;;5.89;90.50;100782.79;1756614;81;21159;-72
2021/05/03 08:59:37;;;;;;;25.00;12.85;;;;;;;5.99;90.50;100783.67;1725071;83;21593;-72
2021/05/03 09:02:04;;;;;;;20.43;9.38;;;;;;;6.06;90.47;100783.50;1756663;81;21135;-72
2021/05/03 09:04:31;;;;;;;18.55;9.93;;;;;;;6.15;90.48;100785.38;1725122;83;21179;-74
2021/05/03 09:06:59;;;;;;;47.65;32.03;;;;;;;6.18;90.44;100786.44;1756823;81;21182;-74
2021/05/03 09:09:43;;;;;;;22.17;11.15;;;;;;;6.27;90.47;100783.46;1724984;83;21205;-73
2021/05/03 09:12:21;;;;;;;20.82;12.37;;;;;;;6.35;90.46;100791.59;1756879;81;21128;-73
2021/05/03 09:15:00;;;;;;;20.37;11.48;;;;;;;6.39;90.43;100793.00;1725122;83;21163;-73
2021/05/03 09:17:33;;;;;;;35.88;23.30;;;;;;;6.41;90.41;100789.23;1756938;81;21119;-73
2021/05/03 09:20:13;;;;;;;51.37;18.02;;;;;;;6.54;90.41;100787.70;1724063;83;21160;-73
2021/05/03 09:22:52;;;;;;;18.32;8.80;;;;;;;6.61;90.39;100786.67;1756573;81;21208;-72
2021/05/03 09:25:23;;;;;;;25.20;10.28;;;;;;;6.67;90.36;100791.42;1724872;83;21492;-73
2021/05/03 09:27:49;;;;;;;18.32;7.50;;;;;;;6.81;90.33;100792.37;1756680;81;21150;-73
2021/05/03 09:30:39;;;;;;;17.67;7.95;;;;;;;6.98;90.28;100790.38;1724987;83;21192;-72
2021/05/03 09:33:30;;;;;;;9.28;4.30;;;;;;;7.05;90.27;100792.83;1756501;81;21450;-72
2021/05/03 09:35:59;;;;;;;16.62;7.47;;;;;;;7.08;90.24;100799.17;1745675;80;21634;-73
2021/05/03 09:38:39;;;;;;;24.47;8.23;;;;;;;7.12;90.24;100789.97;1755383;81;21144;-72
2021/05/03 09:41:16;;;;;;;18.80;8.15;;;;;;;7.10;90.19;100792.42;1724832;83;21151;-73
2021/05/03 09:44:06;;;;;;;18.20;7.83;;;;;;;7.15;90.17;100793.67;1751615;81;21165;-73
2021/05/03 09:46:44;;;;;;;14.85;6.75;;;;;;;7.21;90.12;100793.14;1747820;81;21127;-73
2021/05/03 09:49:13;;;;;;;13.80;5.22;;;;;;;7.39;90.08;100782.64;1724118;83;21205;-73
2021/05/03 09:51:52;;;;;;;21.35;7.78;;;;;;;7.43;90.03;100788.86;1756519;80;21603;-73
2021/05/03 09:57:10;;;;;;;21.97;6.62;;;;;;;7.87;89.86;100776.81;1794073;77;22538;-73
2021/05/03 09:59:48;;;;;;;32.45;15.13;;;;;;;7.91;89.75;100783.51;1759122;80;26766;-74
2021/05/03 10:02:30;;;;;;;20.88;8.88;;;;;;;7.96;89.67;100781.24;1758558;80;22122;-72
2021/05/03 10:07:37;;;;;;;28.42;12.05;;;;;;;8.14;89.46;100772.52;1787615;80;21568;-73
2021/05/03 10:10:08;;;;;;;74.10;25.88;;;;;;;8.32;89.33;100776.97;1784898;80;21549;-73
2021/05/03 10:12:33;;;;;;;70.22;23.27;;;;;;;8.50;89.23;100775.21;1787833;80;21178;-73
2021/05/03 10:15:01;;;;;;;101.60;31.00;;;;;;;8.73;89.10;100774.80;1787900;79;21237;-73
2021/05/03 10:17:29;;;;;;;30.00;10.70;;;;;;;8.92;88.97;100769.37;1782969;80;21049;-73
2021/05/03 10:19:58;;;;;;;120.80;43.05;;;;;;;9.05;88.79;100775.16;1787813;80;21391;-73
2021/05/03 10:22:24;;;;;;;68.07;28.55;;;;;;;9.16;88.60;100774.94;1788024;80;21107;-73
2021/05/03 10:25:00;;;;;;;22.37;11.53;;;;;;;9.14;88.35;100774.27;1787998;80;21139;-73
2021/05/03 10:27:27;;;;;;;10.38;6.00;;;;;;;9.08;88.11;100776.17;1787334;80;21210;-73
2021/05/03 10:30:24;;;;;;;7.37;2.35;;;;;;;8.79;87.72;100776.39;1787860;80;21207;-73
2021/05/03 10:33:01;;;;;;;8.03;4.28;;;;;;;8.63;87.47;100781.98;1787670;80;21202;-73
2021/05/03 10:35:30;;;;;;;7.45;2.67;;;;;;;8.46;87.11;100779.14;1787863;80;21175;-73
2021/05/03 10:37:57;;;;;;;9.98;4.55;;;;;;;8.52;86.87;100778.55;1784256;80;21135;-73
2021/05/03 10:40:35;;;;;;;12.23;5.35;;;;;;;8.67;86.64;100774.91;1762722;80;21131;-73
2021/05/03 10:43:12;;;;;;;8.73;3.92;;;;;;;8.70;86.42;100777.75;1753167;81;21136;-73
2021/05/03 10:51:42;;;;;;;7.87;3.70;;;;;;;8.41;85.52;100769.43;1794203;77;22683;-71
2021/05/03 10:57:09;;;;;;;11.33;6.15;;;;;;;8.41;84.99;100769.43;1772918;79;22806;-73
2021/05/03 10:59:49;;;;;;;11.93;5.08;;;;;;;8.37;84.63;100774.69;1759393;79;21151;-73
2021/05/03 11:02:18;;;;;;;17.45;7.17;;;;;;;8.45;84.37;100770.81;1774409;79;21183;-73
2021/05/03 11:05:27;;;;;;;14.60;6.08;;;;;;;8.56;83.96;100768.45;1777459;79;21171;-73
2021/05/03 11:08:11;;;;;;;18.77;8.28;;;;;;;8.74;83.59;100768.50;1763441;81;21188;-73
2021/05/03 11:11:04;;;;;;;8.98;3.50;;;;;;;9.07;83.19;100768.36;1787386;80;21755;-73
2021/05/03 11:13:41;;;;;;;11.00;7.50;;;;;;;9.26;82.75;100767.71;1776234;80;21219;-73
2021/05/03 11:16:32;;;;;;;15.38;4.65;;;;;;;9.26;82.23;100777.52;1767123;79;22297;-73
2021/05/03 11:19:00;;;;;;;6.05;2.80;;;;;;;9.07;81.73;100773.19;1760123;80;21096;-73
2021/05/03 11:24:35;;;;;;;10.93;5.30;;;;;;;8.61;80.63;100773.34;1786024;77;28533;-71
2021/05/03 11:27:17;;;;;;;15.68;5.33;;;;;;;8.49;80.28;100778.84;1756574;80;21162;-71
2021/05/03 11:29:58;;;;;;;9.03;4.17;;;;;;;8.42;79.98;100783.08;1758603;80;22097;-73
2021/05/03 11:32:34;;;;;;;7.97;3.37;;;;;;;8.34;79.70;100782.96;1769473;80;21237;-73
2021/05/03 11:35:11;;;;;;;8.40;2.83;;;;;;;8.20;79.30;100778.61;1759990;80;21060;-73
2021/05/03 11:46:07;;;;;;;10.30;4.20;;;;;;;8.12;78.26;100787.30;1827428;77;21274;-72
2021/05/03 11:48:33;;;;;;;10.10;3.37;;;;;;;8.15;78.07;100780.84;1794535;78;21139;-72
2021/05/03 11:51:13;;;;;;;8.40;3.42;;;;;;;8.22;77.90;100782.78;1769424;80;21138;-72
2021/05/03 11:53:43;;;;;;;10.48;3.72;;;;;;;8.36;77.74;100786.33;1754408;81;21142;-73
2021/05/03 11:56:25;;;;;;;3.80;1.90;;;;;;;8.57;77.56;100790.56;1737442;80;21172;-73
2021/05/03 11:58:55;;;;;;;10.63;3.50;;;;;;;8.58;77.24;100778.95;1757284;81;21187;-73
2021/05/03 12:01:23;;;;;;;3.67;2.05;;;;;;;8.62;76.95;100781.67;1716211;82;26902;-73
2021/05/03 12:03:51;;;;;;;6.55;2.67;;;;;;;8.63;76.61;100780.66;1725991;83;21147;-73
2021/05/03 12:06:41;;;;;;;37.50;15.68;;;;;;;8.59;76.27;100779.28;1725358;81;21477;-73
2021/05/03 12:09:10;;;;;;;47.67;19.02;;;;;;;8.64;75.97;100777.87;1695489;84;21223;-73
2021/05/03 12:11:37;;;;;;;29.70;11.67;;;;;;;8.92;75.85;100787.98;1726251;83;21932;-73